sensor_id;sensor_type;location;lat;lon;timestamp;temperature;humidity
12421;DHT22;6275;43.688;1.408;2024-01-15T00:00:21;1.60;99.90
12421;DHT22;6275;43.688;1.408;2024-01-15T00:02:48;1.50;99.90
12421;DHT22;6275;43.688;1.408;2024-01-15T00:05:15;1.50;99.90
12421;DHT22;6275;43.688;1.408;2024-01-15T00:07:42;1.40;99.90
12421;DHT22;6275;43.688;1.408;2024-01-15T00:10:09;1.40;99.90
12421;DHT22;6275;43.688;1.408;2024-01-15T00:12:36;1.40;99.90
12421;DHT22;6275;43.688;1.408;2024-01-15T00:15:03;1.50;99.90
12421;DHT22;6275;43.688;1.408;2024-01-15T00:17:31;1.60;99.90
12421;DHT22;6275;43.688;1.408;2024-01-15T00:19:58;1.60;99.90
12421;DHT22;6275;43.688;1.408;2024-01-15T00:22:26;1.70;99.90
12421;DHT22;6275;43.688;1.408;2024-01-15T00:24:56;1.80;99.90
12421;DHT22;6275;43.688;1.408;2024-01-15T00:27:23;1.80;99.90
12421;DHT22;6275;43.688;1.408;2024-01-15T00:29:50;1.90;99.90
12421;DHT22;6275;43.688;1.408;2024-01-15T00:32:18;1.80;99.90
12421;DHT22;6275;43.688;1.408;2024-01-15T00:34:46;1.80;99.90
12421;DHT22;6275;43.688;1.408;2024-01-15T00:37:14;1.80;99.90
12421;DHT22;6275;43.688;1.408;2024-01-15T00:39:41;1.80;99.90
12421;DHT22;6275;43.688;1.408;2024-01-15T00:42:09;1.80;99.90
12421;DHT22;6275;43.688;1.408;2024-01-15T00:44:36;1.70;99.90
12421;DHT22;6275;43.688;1.408;2024-01-15T00:47:02;1.70;99.90
12421;DHT22;6275;43.688;1.408;2024-01-15T00:49:30;1.70;99.90
12421;DHT22;6275;43.688;1.408;2024-01-15T00:51:57;1.70;99.90
12421;DHT22;6275;43.688;1.408;2024-01-15T00:54:24;1.70;99.90
12421;DHT22;6275;43.688;1.408;2024-01-15T00:56:51;1.70;99.90
12421;DHT22;6275;43.688;1.408;2024-01-15T00:59:18;1.70;99.90
12421;DHT22;6275;43.688;1.408;2024-01-15T01:01:47;1.70;99.90
12421;DHT22;6275;43.688;1.408;2024-01-15T01:04:14;1.70;99.90
12421;DHT22;6275;43.688;1.408;2024-01-15T01:06:41;1.70;99.90
12421;DHT22;6275;43.688;1.408;2024-01-15T01:09:08;1.70;99.90
12421;DHT22;6275;43.688;1.408;2024-01-15T01:11:35;1.70;99.90
12421;DHT22;6275;43.688;1.408;2024-01-15T01:14:01;1.70;99.90
12421;DHT22;6275;43.688;1.408;2024-01-15T01:16:28;1.70;99.90
12421;DHT22;6275;43.688;1.408;2024-01-15T01:18:56;1.60;99.90
12421;DHT22;6275;43.688;1.408;2024-01-15T01:21:23;1.60;99.90
12421;DHT22;6275;43.688;1.408;2024-01-15T01:23:50;1.60;99.90
12421;DHT22;6275;43.688;1.408;2024-01-15T01:26:17;1.70;99.90
12421;DHT22;6275;43.688;1.408;2024-01-15T01:28:44;1.70;99.90
12421;DHT22;6275;43.688;1.408;2024-01-15T01:31:11;1.70;99.90
12421;DHT22;6275;43.688;1.408;2024-01-15T01:33:39;1.70;99.90
12421;DHT22;6275;43.688;1.408;2024-01-15T01:36:08;1.70;99.90
12421;DHT22;6275;43.688;1.408;2024-01-15T01:38:37;1.70;99.90
12421;DHT22;6275;43.688;1.408;2024-01-15T01:41:04;1.70;99.90
12421;DHT22;6275;43.688;1.408;2024-01-15T01:43:31;1.70;99.90
12421;DHT22;6275;43.688;1.408;2024-01-15T01:45:58;1.70;99.90
12421;DHT22;6275;43.688;1.408;2024-01-15T01:48:27;1.70;99.90
12421;DHT22;6275;43.688;1.408;2024-01-15T01:50:58;1.70;99.90
12421;DHT22;6275;43.688;1.408;2024-01-15T01:53:27;1.70;99.90
12421;DHT22;6275;43.688;1.408;2024-01-15T01:55:54;1.70;99.90
12421;DHT22;6275;43.688;1.408;2024-01-15T01:58:22;1.70;99.90
12421;DHT22;6275;43.688;1.408;2024-01-15T02:00:49;1.70;99.90
12421;DHT22;6275;43.688;1.408;2024-01-15T02:03:17;1.70;99.90
12421;DHT22;6275;43.688;1.408;2024-01-15T02:05:44;1.70;99.90
12421;DHT22;6275;43.688;1.408;2024-01-15T02:08:11;1.70;99.90
12421;DHT22;6275;43.688;1.408;2024-01-15T02:10:38;1.70;99.90
12421;DHT22;6275;43.688;1.408;2024-01-15T02:13:05;1.70;99.90
12421;DHT22;6275;43.688;1.408;2024-01-15T02:15:32;1.80;99.90
12421;DHT22;6275;43.688;1.408;2024-01-15T02:18:01;1.80;99.90
12421;DHT22;6275;43.688;1.408;2024-01-15T02:20:29;1.80;99.90
12421;DHT22;6275;43.688;1.408;2024-01-15T02:23:09;1.70;99.90
12421;DHT22;6275;43.688;1.408;2024-01-15T02:25:44;1.70;99.90
12421;DHT22;6275;43.688;1.408;2024-01-15T02:28:17;1.70;99.90
12421;DHT22;6275;43.688;1.408;2024-01-15T02:30:44;1.60;99.90
12421;DHT22;6275;43.688;1.408;2024-01-15T02:33:12;1.60;99.90
12421;DHT22;6275;43.688;1.408;2024-01-15T02:35:40;1.60;99.90
12421;DHT22;6275;43.688;1.408;2024-01-15T02:38:07;1.60;99.90
12421;DHT22;6275;43.688;1.408;2024-01-15T02:40:35;1.70;99.90
12421;DHT22;6275;43.688;1.408;2024-01-15T02:43:02;1.80;99.90
12421;DHT22;6275;43.688;1.408;2024-01-15T02:45:30;1.80;99.90
12421;DHT22;6275;43.688;1.408;2024-01-15T02:47:57;1.80;99.90
12421;DHT22;6275;43.688;1.408;2024-01-15T02:50:24;1.80;99.90
12421;DHT22;6275;43.688;1.408;2024-01-15T02:52:51;1.80;99.90
12421;DHT22;6275;43.688;1.408;2024-01-15T02:55:18;1.80;99.90
12421;DHT22;6275;43.688;1.408;2024-01-15T02:57:45;1.80;99.90
12421;DHT22;6275;43.688;1.408;2024-01-15T03:00:12;1.80;99.90
12421;DHT22;6275;43.688;1.408;2024-01-15T03:02:40;1.80;99.90
12421;DHT22;6275;43.688;1.408;2024-01-15T03:05:12;1.80;99.90
12421;DHT22;6275;43.688;1.408;2024-01-15T03:07:39;1.70;99.90
12421;DHT22;6275;43.688;1.408;2024-01-15T03:10:06;1.70;99.90
12421;DHT22;6275;43.688;1.408;2024-01-15T03:12:33;1.70;99.90
12421;DHT22;6275;43.688;1.408;2024-01-15T03:15:01;1.70;99.90
12421;DHT22;6275;43.688;1.408;2024-01-15T03:17:28;1.70;99.90
12421;DHT22;6275;43.688;1.408;2024-01-15T03:19:54;1.70;99.90
12421;DHT22;6275;43.688;1.408;2024-01-15T03:22:22;1.70;99.90
12421;DHT22;6275;43.688;1.408;2024-01-15T03:24:49;1.70;99.90
12421;DHT22;6275;43.688;1.408;2024-01-15T03:27:16;1.60;99.90
12421;DHT22;6275;43.688;1.408;2024-01-15T03:29:43;1.60;99.90
12421;DHT22;6275;43.688;1.408;2024-01-15T03:32:10;1.60;99.90
12421;DHT22;6275;43.688;1.408;2024-01-15T03:34:37;1.60;99.90
12421;DHT22;6275;43.688;1.408;2024-01-15T03:37:05;1.60;99.90
12421;DHT22;6275;43.688;1.408;2024-01-15T03:39:32;1.70;99.90
12421;DHT22;6275;43.688;1.408;2024-01-15T03:41:59;1.60;99.90
12421;DHT22;6275;43.688;1.408;2024-01-15T03:44:26;1.60;99.90
12421;DHT22;6275;43.688;1.408;2024-01-15T03:46:53;1.60;99.90
12421;DHT22;6275;43.688;1.408;2024-01-15T03:49:20;1.60;99.90
12421;DHT22;6275;43.688;1.408;2024-01-15T03:51:47;1.50;99.90
12421;DHT22;6275;43.688;1.408;2024-01-15T03:54:14;1.50;99.90
12421;DHT22;6275;43.688;1.408;2024-01-15T03:56:45;1.50;99.90
12421;DHT22;6275;43.688;1.408;2024-01-15T03:59:12;1.50;99.90
12421;DHT22;6275;43.688;1.408;2024-01-15T04:01:39;1.50;99.90
12421;DHT22;6275;43.688;1.408;2024-01-15T04:04:06;1.50;99.90
12421;DHT22;6275;43.688;1.408;2024-01-15T04:06:33;1.50;99.90
12421;DHT22;6275;43.688;1.408;2024-01-15T04:09:00;1.50;99.90
12421;DHT22;6275;43.688;1.408;2024-01-15T04:11:27;1.50;99.90
12421;DHT22;6275;43.688;1.408;2024-01-15T04:13:54;1.50;99.90
12421;DHT22;6275;43.688;1.408;2024-01-15T04:16:21;1.50;99.90
12421;DHT22;6275;43.688;1.408;2024-01-15T04:18:48;1.40;99.90
12421;DHT22;6275;43.688;1.408;2024-01-15T04:21:17;1.40;99.90
12421;DHT22;6275;43.688;1.408;2024-01-15T04:23:44;1.30;99.90
12421;DHT22;6275;43.688;1.408;2024-01-15T04:26:11;1.30;99.90
12421;DHT22;6275;43.688;1.408;2024-01-15T04:28:38;1.20;99.90
12421;DHT22;6275;43.688;1.408;2024-01-15T04:31:05;1.20;99.90
12421;DHT22;6275;43.688;1.408;2024-01-15T04:33:32;1.10;99.90
12421;DHT22;6275;43.688;1.408;2024-01-15T04:36:04;1.10;99.90
12421;DHT22;6275;43.688;1.408;2024-01-15T04:38:32;1.20;99.90
12421;DHT22;6275;43.688;1.408;2024-01-15T04:40:59;1.10;99.90
12421;DHT22;6275;43.688;1.408;2024-01-15T04:43:26;1.10;99.90
12421;DHT22;6275;43.688;1.408;2024-01-15T04:45:53;1.10;99.90
12421;DHT22;6275;43.688;1.408;2024-01-15T04:48:20;1.10;99.90
12421;DHT22;6275;43.688;1.408;2024-01-15T04:50:49;1.10;99.90
12421;DHT22;6275;43.688;1.408;2024-01-15T04:53:17;1.00;99.90
12421;DHT22;6275;43.688;1.408;2024-01-15T04:55:44;0.90;99.90
12421;DHT22;6275;43.688;1.408;2024-01-15T04:58:11;0.80;99.90
12421;DHT22;6275;43.688;1.408;2024-01-15T05:00:37;0.80;99.90
12421;DHT22;6275;43.688;1.408;2024-01-15T05:03:05;0.80;99.90
12421;DHT22;6275;43.688;1.408;2024-01-15T05:05:32;0.90;99.90
12421;DHT22;6275;43.688;1.408;2024-01-15T05:07:59;0.90;99.90
12421;DHT22;6275;43.688;1.408;2024-01-15T05:10:25;1.00;99.90
12421;DHT22;6275;43.688;1.408;2024-01-15T05:12:52;1.00;99.90
12421;DHT22;6275;43.688;1.408;2024-01-15T05:15:19;0.90;99.90
12421;DHT22;6275;43.688;1.408;2024-01-15T05:17:46;0.90;99.90
12421;DHT22;6275;43.688;1.408;2024-01-15T05:20:13;0.90;99.90
12421;DHT22;6275;43.688;1.408;2024-01-15T05:22:41;0.80;99.90
12421;DHT22;6275;43.688;1.408;2024-01-15T05:25:08;0.80;99.90
12421;DHT22;6275;43.688;1.408;2024-01-15T05:27:35;0.70;99.90
12421;DHT22;6275;43.688;1.408;2024-01-15T05:30:02;0.70;99.90
12421;DHT22;6275;43.688;1.408;2024-01-15T05:32:29;0.70;99.90
12421;DHT22;6275;43.688;1.408;2024-01-15T05:34:56;0.70;99.90
12421;DHT22;6275;43.688;1.408;2024-01-15T05:37:23;0.70;99.90
12421;DHT22;6275;43.688;1.408;2024-01-15T05:39:50;0.70;99.90
12421;DHT22;6275;43.688;1.408;2024-01-15T05:42:17;0.70;99.90
12421;DHT22;6275;43.688;1.408;2024-01-15T05:44:44;0.70;99.90
12421;DHT22;6275;43.688;1.408;2024-01-15T05:47:11;0.70;99.90
12421;DHT22;6275;43.688;1.408;2024-01-15T05:49:38;0.70;99.90
12421;DHT22;6275;43.688;1.408;2024-01-15T05:52:05;0.70;99.90
12421;DHT22;6275;43.688;1.408;2024-01-15T05:54:32;0.60;99.90
12421;DHT22;6275;43.688;1.408;2024-01-15T05:56:59;0.70;99.90
12421;DHT22;6275;43.688;1.408;2024-01-15T05:59:26;0.70;99.90
12421;DHT22;6275;43.688;1.408;2024-01-15T06:01:53;0.70;99.90
12421;DHT22;6275;43.688;1.408;2024-01-15T06:04:20;0.70;99.90
12421;DHT22;6275;43.688;1.408;2024-01-15T06:06:47;0.60;99.90
12421;DHT22;6275;43.688;1.408;2024-01-15T06:09:14;0.60;99.90
12421;DHT22;6275;43.688;1.408;2024-01-15T06:11:41;0.60;99.90
12421;DHT22;6275;43.688;1.408;2024-01-15T06:14:08;0.60;99.90
12421;DHT22;6275;43.688;1.408;2024-01-15T06:16:35;0.60;99.90
12421;DHT22;6275;43.688;1.408;2024-01-15T06:19:02;0.50;99.90
12421;DHT22;6275;43.688;1.408;2024-01-15T06:21:29;0.50;99.90
12421;DHT22;6275;43.688;1.408;2024-01-15T06:23:56;0.60;99.90
12421;DHT22;6275;43.688;1.408;2024-01-15T06:26:23;0.70;99.90
12421;DHT22;6275;43.688;1.408;2024-01-15T06:28:51;0.70;99.90
12421;DHT22;6275;43.688;1.408;2024-01-15T06:31:18;0.70;99.90
12421;DHT22;6275;43.688;1.408;2024-01-15T06:33:45;0.60;99.90
12421;DHT22;6275;43.688;1.408;2024-01-15T06:36:15;0.60;99.90
12421;DHT22;6275;43.688;1.408;2024-01-15T06:38:45;0.50;99.90
12421;DHT22;6275;43.688;1.408;2024-01-15T06:41:12;0.50;99.90
12421;DHT22;6275;43.688;1.408;2024-01-15T06:43:39;0.50;99.90
12421;DHT22;6275;43.688;1.408;2024-01-15T06:46:06;0.50;99.90
12421;DHT22;6275;43.688;1.408;2024-01-15T06:48:34;0.50;99.90
12421;DHT22;6275;43.688;1.408;2024-01-15T06:51:01;0.50;99.90
12421;DHT22;6275;43.688;1.408;2024-01-15T06:53:28;0.40;99.90
12421;DHT22;6275;43.688;1.408;2024-01-15T06:55:55;0.50;99.90
12421;DHT22;6275;43.688;1.408;2024-01-15T06:58:22;0.50;99.90
12421;DHT22;6275;43.688;1.408;2024-01-15T07:00:49;0.60;99.90
12421;DHT22;6275;43.688;1.408;2024-01-15T07:03:16;0.60;99.90
12421;DHT22;6275;43.688;1.408;2024-01-15T07:05:44;0.50;99.90
12421;DHT22;6275;43.688;1.408;2024-01-15T07:08:11;0.50;99.90
12421;DHT22;6275;43.688;1.408;2024-01-15T07:10:38;0.60;99.90
12421;DHT22;6275;43.688;1.408;2024-01-15T07:13:05;0.50;99.90
12421;DHT22;6275;43.688;1.408;2024-01-15T07:15:32;0.60;99.90
12421;DHT22;6275;43.688;1.408;2024-01-15T07:17:59;0.60;99.90
12421;DHT22;6275;43.688;1.408;2024-01-15T07:20:26;0.60;99.90
12421;DHT22;6275;43.688;1.408;2024-01-15T07:22:53;0.60;99.90
12421;DHT22;6275;43.688;1.408;2024-01-15T07:25:20;0.60;99.90
12421;DHT22;6275;43.688;1.408;2024-01-15T07:27:47;0.60;99.90
12421;DHT22;6275;43.688;1.408;2024-01-15T07:30:14;0.70;99.90
12421;DHT22;6275;43.688;1.408;2024-01-15T07:32:41;0.70;99.90
12421;DHT22;6275;43.688;1.408;2024-01-15T07:35:09;0.70;99.90
12421;DHT22;6275;43.688;1.408;2024-01-15T07:37:37;0.70;99.90
12421;DHT22;6275;43.688;1.408;2024-01-15T07:40:04;0.70;99.90
12421;DHT22;6275;43.688;1.408;2024-01-15T07:42:32;0.80;99.90
12421;DHT22;6275;43.688;1.408;2024-01-15T07:44:59;0.70;99.90
12421;DHT22;6275;43.688;1.408;2024-01-15T07:47:26;0.80;99.90
12421;DHT22;6275;43.688;1.408;2024-01-15T07:49:54;0.80;99.90
12421;DHT22;6275;43.688;1.408;2024-01-15T07:52:23;0.80;99.90
12421;DHT22;6275;43.688;1.408;2024-01-15T07:54:50;0.80;99.90
12421;DHT22;6275;43.688;1.408;2024-01-15T07:57:17;0.80;99.90
12421;DHT22;6275;43.688;1.408;2024-01-15T07:59:44;0.80;99.90
12421;DHT22;6275;43.688;1.408;2024-01-15T08:02:11;0.80;99.90
12421;DHT22;6275;43.688;1.408;2024-01-15T08:04:38;0.80;99.90
12421;DHT22;6275;43.688;1.408;2024-01-15T08:07:05;0.80;99.90
12421;DHT22;6275;43.688;1.408;2024-01-15T08:09:34;0.90;99.90
12421;DHT22;6275;43.688;1.408;2024-01-15T08:12:01;0.90;99.90
12421;DHT22;6275;43.688;1.408;2024-01-15T08:14:29;1.00;99.90
12421;DHT22;6275;43.688;1.408;2024-01-15T08:16:55;1.00;99.90
12421;DHT22;6275;43.688;1.408;2024-01-15T08:19:22;0.90;99.90
12421;DHT22;6275;43.688;1.408;2024-01-15T08:21:50;1.00;99.90
12421;DHT22;6275;43.688;1.408;2024-01-15T08:24:18;1.00;99.90
12421;DHT22;6275;43.688;1.408;2024-01-15T08:26:45;1.00;99.90
12421;DHT22;6275;43.688;1.408;2024-01-15T08:29:12;1.00;99.90
12421;DHT22;6275;43.688;1.408;2024-01-15T08:31:39;1.10;99.90
12421;DHT22;6275;43.688;1.408;2024-01-15T08:34:06;1.10;99.90
12421;DHT22;6275;43.688;1.408;2024-01-15T08:36:33;1.20;99.90
12421;DHT22;6275;43.688;1.408;2024-01-15T08:39:02;1.30;99.90
12421;DHT22;6275;43.688;1.408;2024-01-15T08:41:33;1.30;99.90
12421;DHT22;6275;43.688;1.408;2024-01-15T08:44:01;1.30;99.90
12421;DHT22;6275;43.688;1.408;2024-01-15T08:46:29;1.20;99.90
12421;DHT22;6275;43.688;1.408;2024-01-15T08:48:56;1.30;99.90
12421;DHT22;6275;43.688;1.408;2024-01-15T08:51:23;1.50;99.90
12421;DHT22;6275;43.688;1.408;2024-01-15T08:53:50;1.50;99.90
12421;DHT22;6275;43.688;1.408;2024-01-15T08:56:17;1.50;99.90
12421;DHT22;6275;43.688;1.408;2024-01-15T08:58:44;1.60;99.90
12421;DHT22;6275;43.688;1.408;2024-01-15T09:01:13;1.60;99.90
12421;DHT22;6275;43.688;1.408;2024-01-15T09:03:40;1.60;99.90
12421;DHT22;6275;43.688;1.408;2024-01-15T09:06:10;1.60;99.90
12421;DHT22;6275;43.688;1.408;2024-01-15T09:08:37;1.60;99.90
12421;DHT22;6275;43.688;1.408;2024-01-15T09:11:04;1.60;99.90
12421;DHT22;6275;43.688;1.408;2024-01-15T09:13:31;1.60;99.90
12421;DHT22;6275;43.688;1.408;2024-01-15T09:16:00;1.60;99.90
12421;DHT22;6275;43.688;1.408;2024-01-15T09:18:29;1.60;99.90
12421;DHT22;6275;43.688;1.408;2024-01-15T09:20:56;1.70;99.90
12421;DHT22;6275;43.688;1.408;2024-01-15T09:23:23;1.70;99.90
12421;DHT22;6275;43.688;1.408;2024-01-15T09:25:51;1.70;99.90
12421;DHT22;6275;43.688;1.408;2024-01-15T09:28:19;1.80;99.90
12421;DHT22;6275;43.688;1.408;2024-01-15T09:30:46;1.90;99.90
12421;DHT22;6275;43.688;1.408;2024-01-15T09:33:14;2.00;99.90
12421;DHT22;6275;43.688;1.408;2024-01-15T09:35:41;2.10;99.90
12421;DHT22;6275;43.688;1.408;2024-01-15T09:38:08;2.20;99.90
12421;DHT22;6275;43.688;1.408;2024-01-15T09:40:38;2.40;99.90
12421;DHT22;6275;43.688;1.408;2024-01-15T09:43:06;2.50;99.90
12421;DHT22;6275;43.688;1.408;2024-01-15T09:45:34;2.50;99.90
12421;DHT22;6275;43.688;1.408;2024-01-15T09:48:01;2.50;99.90
12421;DHT22;6275;43.688;1.408;2024-01-15T09:50:28;2.60;99.90
12421;DHT22;6275;43.688;1.408;2024-01-15T09:52:56;2.80;99.90
12421;DHT22;6275;43.688;1.408;2024-01-15T09:55:24;2.90;99.90
12421;DHT22;6275;43.688;1.408;2024-01-15T09:57:52;3.00;99.90
12421;DHT22;6275;43.688;1.408;2024-01-15T10:00:19;3.00;99.90
12421;DHT22;6275;43.688;1.408;2024-01-15T10:02:47;3.00;99.90
12421;DHT22;6275;43.688;1.408;2024-01-15T10:05:14;3.20;99.90
12421;DHT22;6275;43.688;1.408;2024-01-15T10:07:42;3.20;99.90
12421;DHT22;6275;43.688;1.408;2024-01-15T10:10:11;3.30;99.90
12421;DHT22;6275;43.688;1.408;2024-01-15T10:12:39;3.20;99.90
12421;DHT22;6275;43.688;1.408;2024-01-15T10:15:09;3.10;99.90
12421;DHT22;6275;43.688;1.408;2024-01-15T10:17:38;3.20;99.90
12421;DHT22;6275;43.688;1.408;2024-01-15T10:20:12;3.20;99.90
12421;DHT22;6275;43.688;1.408;2024-01-15T10:22:43;3.20;99.90
12421;DHT22;6275;43.688;1.408;2024-01-15T10:25:11;3.10;99.90
12421;DHT22;6275;43.688;1.408;2024-01-15T10:27:38;3.10;99.90
12421;DHT22;6275;43.688;1.408;2024-01-15T10:30:08;3.30;99.90
12421;DHT22;6275;43.688;1.408;2024-01-15T10:32:35;3.40;99.90
12421;DHT22;6275;43.688;1.408;2024-01-15T10:35:02;3.40;99.90
12421;DHT22;6275;43.688;1.408;2024-01-15T10:37:33;3.50;99.90
12421;DHT22;6275;43.688;1.408;2024-01-15T10:40:03;3.40;99.90
12421;DHT22;6275;43.688;1.408;2024-01-15T10:42:33;3.40;99.90
12421;DHT22;6275;43.688;1.408;2024-01-15T10:45:00;3.40;99.90
12421;DHT22;6275;43.688;1.408;2024-01-15T10:47:27;3.60;99.90
12421;DHT22;6275;43.688;1.408;2024-01-15T10:49:55;3.70;99.90
12421;DHT22;6275;43.688;1.408;2024-01-15T10:52:22;3.80;99.90
12421;DHT22;6275;43.688;1.408;2024-01-15T10:54:50;3.60;99.90
12421;DHT22;6275;43.688;1.408;2024-01-15T10:57:18;3.40;99.90
12421;DHT22;6275;43.688;1.408;2024-01-15T10:59:47;3.60;99.90
12421;DHT22;6275;43.688;1.408;2024-01-15T11:02:15;3.70;99.90
12421;DHT22;6275;43.688;1.408;2024-01-15T11:04:42;4.20;99.90
12421;DHT22;6275;43.688;1.408;2024-01-15T11:07:10;4.50;99.90
12421;DHT22;6275;43.688;1.408;2024-01-15T11:09:38;4.60;99.90
12421;DHT22;6275;43.688;1.408;2024-01-15T11:12:16;4.90;99.90
12421;DHT22;6275;43.688;1.408;2024-01-15T11:14:48;5.40;99.90
12421;DHT22;6275;43.688;1.408;2024-01-15T11:17:17;6.20;99.90
12421;DHT22;6275;43.688;1.408;2024-01-15T11:19:46;6.70;99.90
12421;DHT22;6275;43.688;1.408;2024-01-15T11:25:12;7.20;99.90
12421;DHT22;6275;43.688;1.408;2024-01-15T11:27:41;7.30;99.90
12421;DHT22;6275;43.688;1.408;2024-01-15T11:30:12;6.80;99.90
12421;DHT22;6275;43.688;1.408;2024-01-15T11:32:40;6.50;99.90
12421;DHT22;6275;43.688;1.408;2024-01-15T11:35:10;6.80;99.90
12421;DHT22;6275;43.688;1.408;2024-01-15T11:40:21;7.40;99.90
12421;DHT22;6275;43.688;1.408;2024-01-15T11:42:49;7.30;99.90
12421;DHT22;6275;43.688;1.408;2024-01-15T11:45:18;7.70;99.90
12421;DHT22;6275;43.688;1.408;2024-01-15T11:48:09;7.70;99.90
12421;DHT22;6275;43.688;1.408;2024-01-15T11:50:42;8.60;99.90
12421;DHT22;6275;43.688;1.408;2024-01-15T11:56:03;8.30;99.90
12421;DHT22;6275;43.688;1.408;2024-01-15T11:58:31;8.80;99.90
12421;DHT22;6275;43.688;1.408;2024-01-15T12:00:58;8.60;99.90
12421;DHT22;6275;43.688;1.408;2024-01-15T12:03:26;8.60;99.90
12421;DHT22;6275;43.688;1.408;2024-01-15T12:05:53;8.70;99.90
12421;DHT22;6275;43.688;1.408;2024-01-15T12:08:22;9.00;99.90
12421;DHT22;6275;43.688;1.408;2024-01-15T12:10:49;9.20;99.90
12421;DHT22;6275;43.688;1.408;2024-01-15T12:13:17;9.20;99.90
12421;DHT22;6275;43.688;1.408;2024-01-15T12:15:47;8.90;99.90
12421;DHT22;6275;43.688;1.408;2024-01-15T12:18:16;9.20;99.90
12421;DHT22;6275;43.688;1.408;2024-01-15T12:20:45;8.80;99.90
12421;DHT22;6275;43.688;1.408;2024-01-15T12:23:15;9.40;99.90
12421;DHT22;6275;43.688;1.408;2024-01-15T12:25:43;9.40;99.90
12421;DHT22;6275;43.688;1.408;2024-01-15T12:28:10;9.00;99.90
12421;DHT22;6275;43.688;1.408;2024-01-15T12:30:39;9.60;99.90
12421;DHT22;6275;43.688;1.408;2024-01-15T12:38:03;9.90;99.90
12421;DHT22;6275;43.688;1.408;2024-01-15T12:40:32;10.00;99.90
12421;DHT22;6275;43.688;1.408;2024-01-15T12:43:00;9.90;99.90
12421;DHT22;6275;43.688;1.408;2024-01-15T12:45:27;9.40;99.90
12421;DHT22;6275;43.688;1.408;2024-01-15T12:47:54;9.30;99.90
12421;DHT22;6275;43.688;1.408;2024-01-15T13:57:19;10.60;99.90
12421;DHT22;6275;43.688;1.408;2024-01-15T13:59:47;10.80;99.90
12421;DHT22;6275;43.688;1.408;2024-01-15T14:02:16;10.60;99.90
12421;DHT22;6275;43.688;1.408;2024-01-15T14:04:50;11.10;99.90
12421;DHT22;6275;43.688;1.408;2024-01-15T14:07:17;11.20;99.90
12421;DHT22;6275;43.688;1.408;2024-01-15T14:09:45;11.30;99.90
12421;DHT22;6275;43.688;1.408;2024-01-15T14:12:13;11.00;99.90
12421;DHT22;6275;43.688;1.408;2024-01-15T14:17:07;10.90;99.90
12421;DHT22;6275;43.688;1.408;2024-01-15T14:19:34;11.20;99.90
12421;DHT22;6275;43.688;1.408;2024-01-15T14:22:02;10.80;99.90
